Time;durP1;ratioP1;P1;durP2;ratioP2;P2;SDS_P1;SDS_P2;PMS_P1;PMS_P2;Temp;Humidity;BMP_temperature;BMP_pressure;BME280_temperature;BME280_humidity;BME280_pressure;Samples;Min_cycle;Max_cycle;Signal;HPM_P1;HPM_P2
2023/01/27 00:01:04;;;;;;;2.58;2.38;;;4.70;99.90;;;;;;4972293;28;20556;-65
2023/01/27 00:03:32;;;;;;;2.15;1.40;;;4.50;99.90;;;;;;4972740;28;20309;-67
2023/01/27 00:06:00;;;;;;;2.13;1.92;;;4.40;99.90;;;;;;4972564;28;20290;-67
2023/01/27 00:08:28;;;;;;;2.78;2.38;;;4.40;99.90;;;;;;4972372;28;20237;-66
2023/01/27 00:13:46;;;;;;;3.00;2.05;;;4.40;99.90;;;;;;4972658;28;20210;-66
2023/01/27 00:16:14;;;;;;;4.05;3.03;;;4.30;99.90;;;;;;4972608;28;20859;-66
2023/01/27 00:18:42;;;;;;;2.50;2.25;;;4.30;99.90;;;;;;4972787;28;20204;-66
2023/01/27 00:26:41;;;;;;;1.60;1.50;;;3.90;99.90;;;;;;4972417;28;20540;-65
2023/01/27 00:29:10;;;;;;;2.55;1.90;;;4.10;99.90;;;;;;4972282;28;20227;-64
2023/01/27 00:34:23;;;;;;;2.65;1.85;;;4.30;99.90;;;;;;4972286;28;20696;-64
2023/01/27 00:36:51;;;;;;;2.45;2.05;;;4.40;99.90;;;;;;4972553;28;20199;-65
2023/01/27 00:39:19;;;;;;;2.10;1.83;;;4.40;99.90;;;;;;4972045;28;20290;-66
2023/01/27 00:41:47;;;;;;;2.60;2.15;;;4.50;99.90;;;;;;4971608;28;20618;-66
2023/01/27 00:44:16;;;;;;;1.55;1.23;;;4.50;99.90;;;;;;4972119;28;20251;-66
2023/01/27 00:46:44;;;;;;;2.25;1.20;;;4.50;99.90;;;;;;4972287;28;20202;-66
2023/01/27 00:49:12;;;;;;;2.72;2.20;;;4.50;99.90;;;;;;4972168;28;20204;-66
2023/01/27 00:51:40;;;;;;;3.50;2.05;;;4.40;99.90;;;;;;4971691;28;20201;-65
2023/01/27 00:54:08;;;;;;;2.50;1.45;;;4.30;99.90;;;;;;4981377;28;20637;-66
2023/01/27 00:56:36;;;;;;;2.95;2.20;;;4.20;99.90;;;;;;4988046;28;20621;-65
2023/01/27 00:59:04;;;;;;;3.90;1.90;;;4.30;99.90;;;;;;4975820;28;20278;-65
2023/01/27 01:01:34;;;;;;;2.30;1.77;;;4.30;99.90;;;;;;4975608;28;20646;-65
2023/01/27 01:04:02;;;;;;;2.88;1.50;;;4.00;99.90;;;;;;4975841;28;20219;-65
2023/01/27 01:06:30;;;;;;;2.97;1.90;;;3.80;99.90;;;;;;4975856;28;20286;-65
2023/01/27 01:08:58;;;;;;;2.45;2.25;;;3.70;99.90;;;;;;4975422;28;20855;-65
2023/01/27 01:11:27;;;;;;;1.17;1.08;;;3.70;99.90;;;;;;4975303;28;20203;-65
2023/01/27 01:13:55;;;;;;;2.75;1.67;;;3.80;99.90;;;;;;4975769;28;20226;-65
2023/01/27 01:16:25;;;;;;;2.53;1.63;;;3.80;99.90;;;;;;4975941;28;20229;-65
2023/01/27 01:18:54;;;;;;;6.72;2.40;;;3.80;99.90;;;;;;4975995;28;20219;-64
2023/01/27 01:21:22;;;;;;;1.15;1.05;;;4.00;99.90;;;;;;4975041;28;20281;-67
2023/01/27 01:23:50;;;;;;;3.35;1.75;;;4.10;99.90;;;;;;4975628;28;20215;-66
2023/01/27 01:26:18;;;;;;;0.98;0.80;;;4.20;99.90;;;;;;4975759;28;20243;-64
2023/01/27 01:28:46;;;;;;;1.70;1.30;;;4.30;99.90;;;;;;4975446;28;20273;-63
2023/01/27 01:31:16;;;;;;;1.33;1.20;;;4.10;99.90;;;;;;4974464;28;20295;-64
2023/01/27 01:33:45;;;;;;;1.77;1.63;;;4.20;99.90;;;;;;4975440;28;20218;-63
2023/01/27 01:36:17;;;;;;;1.42;1.30;;;4.10;99.90;;;;;;4955961;28;20282;-64
2023/01/27 01:38:45;;;;;;;3.00;2.67;;;4.10;99.90;;;;;;4968437;28;20544;-65
2023/01/27 01:41:15;;;;;;;1.45;1.25;;;4.20;99.90;;;;;;4974799;28;20198;-65
2023/01/27 01:43:43;;;;;;;1.77;1.58;;;4.10;99.90;;;;;;4975471;28;20265;-64
2023/01/27 01:46:11;;;;;;;2.35;1.67;;;4.10;99.90;;;;;;5017987;22;20252;-64
2023/01/27 01:48:42;;;;;;;1.48;1.33;;;4.00;99.90;;;;;;5006294;28;20216;-63
2023/01/27 01:51:13;;;;;;;2.42;2.08;;;3.70;99.90;;;;;;4998519;28;20576;-62
2023/01/27 01:53:47;;;;;;;5.18;2.05;;;3.90;99.90;;;;;;5014070;28;20185;-62
2023/01/27 01:56:21;;;;;;;1.40;1.20;;;3.90;99.90;;;;;;5013999;28;20218;-63
2023/01/27 01:58:49;;;;;;;1.23;1.10;;;3.90;99.90;;;;;;5014141;28;20256;-62
2023/01/27 02:01:19;;;;;;;1.63;1.52;;;3.90;99.90;;;;;;5013445;28;20189;-62
2023/01/27 02:03:50;;;;;;;1.65;1.10;;;4.10;99.90;;;;;;5013862;28;20222;-62
2023/01/27 02:06:19;;;;;;;2.35;2.08;;;4.10;99.90;;;;;;5013220;28;20224;-63
2023/01/27 02:08:50;;;;;;;1.73;1.40;;;4.20;99.90;;;;;;5013710;28;20208;-61
2023/01/27 02:11:18;;;;;;;1.63;1.42;;;4.20;99.90;;;;;;5013088;28;20289;-62
2023/01/27 02:13:47;;;;;;;1.48;1.38;;;4.20;99.90;;;;;;5013946;28;20199;-62
2023/01/27 02:16:15;;;;;;;2.10;1.90;;;4.30;99.90;;;;;;5013472;28;20741;-61
2023/01/27 02:18:43;;;;;;;0.98;0.88;;;4.30;99.90;;;;;;5013777;28;20230;-63
2023/01/27 02:21:11;;;;;;;1.80;1.15;;;4.40;99.90;;;;;;5013074;28;20231;-62
2023/01/27 02:23:54;;;;;;;1.80;1.40;;;4.30;99.90;;;;;;5013399;28;20687;-62
2023/01/27 02:26:28;;;;;;;1.65;1.30;;;4.30;99.90;;;;;;5013194;28;20217;-62
2023/01/27 02:28:57;;;;;;;1.92;1.42;;;4.30;99.90;;;;;;5013267;28;20207;-62
2023/01/27 02:31:25;;;;;;;1.20;0.95;;;4.30;99.90;;;;;;5012960;28;20205;-62
2023/01/27 02:33:57;;;;;;;1.95;1.40;;;4.40;99.90;;;;;;5013405;28;20278;-62
2023/01/27 02:36:28;;;;;;;1.30;1.13;;;4.20;99.90;;;;;;5013052;28;20281;-65
2023/01/27 02:38:58;;;;;;;1.05;0.93;;;4.10;99.90;;;;;;5012900;28;20190;-63
2023/01/27 02:41:31;;;;;;;2.25;1.40;;;4.20;99.90;;;;;;4994589;28;20282;-63
2023/01/27 02:43:59;;;;;;;1.30;1.20;;;4.00;99.90;;;;;;4993678;28;20225;-63
2023/01/27 02:46:27;;;;;;;1.00;0.90;;;3.90;99.90;;;;;;4992609;28;20234;-65
2023/01/27 02:48:55;;;;;;;1.48;1.10;;;3.90;99.90;;;;;;4992668;28;20206;-65
2023/01/27 02:51:23;;;;;;;1.77;1.35;;;3.90;99.90;;;;;;5000772;28;20197;-65
2023/01/27 02:53:51;;;;;;;2.70;1.45;;;3.80;99.90;;;;;;5011985;28;20237;-65
2023/01/27 02:56:19;;;;;;;1.20;1.10;;;3.50;99.90;;;;;;5011761;28;20226;-63
2023/01/27 02:58:49;;;;;;;0.95;0.80;;;3.30;99.90;;;;;;5012257;28;20285;-64
2023/01/27 03:01:16;;;;;;;1.10;1.00;;;3.40;99.90;;;;;;5011394;28;20201;-64
2023/01/27 03:03:45;;;;;;;1.42;1.33;;;3.10;99.90;;;;;;5011940;28;20291;-65
2023/01/27 03:06:14;;;;;;;1.85;1.20;;;3.10;99.90;;;;;;5011607;28;20214;-64
2023/01/27 03:08:43;;;;;;;1.60;1.02;;;3.10;99.90;;;;;;5011376;28;20209;-65
2023/01/27 03:11:11;;;;;;;2.17;1.10;;;2.90;99.90;;;;;;5010933;28;20276;-65
2023/01/27 03:13:39;;;;;;;1.15;1.05;;;3.00;99.90;;;;;;5011944;28;20284;-65
2023/01/27 03:18:56;;;;;;;0.98;0.82;;;3.20;99.90;;;;;;5011852;28;20202;-65
2023/01/27 03:21:24;;;;;;;1.10;0.90;;;2.90;99.90;;;;;;5010672;28;20288;-65
2023/01/27 03:23:52;;;;;;;1.08;0.98;;;2.80;99.90;;;;;;5011751;28;20222;-65
2023/01/27 03:26:23;;;;;;;1.60;1.50;;;2.60;99.90;;;;;;5011660;28;20213;-65
2023/01/27 03:29:53;;;;;;;1.05;0.95;;;2.50;99.90;;;;;;5011965;28;20201;-65
2023/01/27 03:31:40;;;;;;;1.17;0.85;;;2.40;99.90;;;;;;5010408;28;20201;-65
2023/01/27 03:34:08;;;;;;;1.58;1.35;;;2.30;99.90;;;;;;5001176;28;20205;-66
2023/01/27 03:47:48;;;;;;;1.30;1.20;;;2.50;99.90;;;;;;5088426;28;21372;-64
2023/01/27 03:50:18;;;;;;;1.77;1.67;;;2.40;99.90;;;;;;5084579;28;20195;-64
2023/01/27 03:53:01;;;;;;;1.55;1.02;;;2.40;99.90;;;;;;5088749;28;20284;-65
2023/01/27 03:55:30;;;;;;;1.50;0.93;;;2.50;99.90;;;;;;5084077;28;20220;-64
2023/01/27 03:58:12;;;;;;;1.38;1.25;;;2.60;99.90;;;;;;5068321;28;20200;-65
2023/01/27 04:00:40;;;;;;;2.47;1.27;;;2.60;99.90;;;;;;5067294;28;20613;-63
2023/01/27 04:08:43;;;;;;;1.88;1.50;;;2.60;99.90;;;;;;5060242;28;20274;-64
2023/01/27 04:14:01;;;;;;;2.80;2.55;;;2.70;99.90;;;;;;5068085;28;20616;-64
2023/01/27 04:16:30;;;;;;;2.08;1.75;;;2.70;99.90;;;;;;5068160;28;20314;-63
2023/01/27 04:18:59;;;;;;;1.92;1.20;;;2.60;99.90;;;;;;5067899;28;20200;-64
2023/01/27 04:21:27;;;;;;;1.00;1.00;;;2.50;99.90;;;;;;5066621;28;20279;-64
2023/01/27 04:23:54;;;;;;;1.80;1.70;;;2.50;99.90;;;;;;5067730;28;20257;-64
2023/01/27 04:26:23;;;;;;;2.15;1.52;;;2.60;99.90;;;;;;5067600;28;20228;-64
2023/01/27 04:28:51;;;;;;;2.00;1.35;;;2.60;99.90;;;;;;5067834;28;20286;-63
2023/01/27 04:31:19;;;;;;;1.40;1.30;;;2.50;99.90;;;;;;5066756;28;20222;-64
2023/01/27 04:33:47;;;;;;;1.27;1.15;;;2.40;99.90;;;;;;5067387;28;20205;-63
2023/01/27 04:36:16;;;;;;;3.20;2.45;;;2.40;99.90;;;;;;5067443;28;20299;-63
2023/01/27 04:38:44;;;;;;;2.15;1.70;;;2.30;99.90;;;;;;5067128;28;20292;-63
2023/01/27 04:41:12;;;;;;;1.50;1.15;;;2.30;99.90;;;;;;5066684;28;20289;-63
2023/01/27 04:43:40;;;;;;;1.58;1.15;;;2.30;99.90;;;;;;5067302;28;20653;-63
2023/01/27 04:46:08;;;;;;;1.48;1.38;;;2.30;99.90;;;;;;5066943;28;20314;-63
2023/01/27 04:48:36;;;;;;;2.03;1.65;;;2.30;99.90;;;;;;5066727;28;20227;-62
2023/01/27 04:51:04;;;;;;;1.13;0.77;;;2.40;99.90;;;;;;5066702;28;20200;-63
2023/01/27 04:53:34;;;;;;;1.65;1.20;;;2.40;99.90;;;;;;5066983;28;20198;-63
2023/01/27 04:56:03;;;;;;;2.25;1.73;;;2.30;99.90;;;;;;5066781;28;20237;-63
2023/01/27 04:58:31;;;;;;;1.92;1.83;;;2.30;99.90;;;;;;5057160;28;20202;-63
2023/01/27 05:00:59;;;;;;;1.50;1.40;;;2.40;99.90;;;;;;5053029;28;20206;-63
2023/01/27 05:03:27;;;;;;;1.40;1.05;;;2.40;99.90;;;;;;5053491;28;20278;-64
2023/01/27 05:05:55;;;;;;;2.17;1.38;;;2.50;99.90;;;;;;5053384;28;20224;-64
2023/01/27 05:08:23;;;;;;;2.92;1.40;;;2.80;99.90;;;;;;5053395;28;20597;-63
2023/01/27 05:10:52;;;;;;;1.73;1.63;;;2.90;99.90;;;;;;5052834;28;20786;-63
2023/01/27 05:13:20;;;;;;;2.47;2.28;;;3.00;99.90;;;;;;5053450;28;20328;-63
2023/01/27 05:15:47;;;;;;;1.67;1.58;;;2.90;99.90;;;;;;5053276;28;20310;-64
2023/01/27 05:18:15;;;;;;;1.60;1.48;;;2.90;99.90;;;;;;5052797;28;20215;-63
2023/01/27 05:20:43;;;;;;;2.25;2.00;;;3.10;99.90;;;;;;5052212;28;20245;-63
2023/01/27 05:25:57;;;;;;;1.52;1.42;;;2.80;99.90;;;;;;5047434;28;20226;-62
2023/01/27 05:28:25;;;;;;;1.65;1.55;;;2.80;99.90;;;;;;5044128;28;20783;-63
2023/01/27 05:31:01;;;;;;;1.35;1.25;;;2.70;99.90;;;;;;5051578;28;20331;-63
2023/01/27 05:33:29;;;;;;;1.10;1.10;;;2.60;99.90;;;;;;5052372;28;20204;-63
2023/01/27 05:36:02;;;;;;;1.35;1.23;;;2.40;99.90;;;;;;5052213;28;20250;-64
2023/01/27 05:38:30;;;;;;;1.65;1.30;;;2.50;99.90;;;;;;5051964;28;20231;-64
2023/01/27 05:41:01;;;;;;;1.50;1.40;;;2.40;99.90;;;;;;5051263;28;20689;-63
2023/01/27 05:43:30;;;;;;;2.13;1.92;;;2.30;99.90;;;;;;5051933;28;20665;-62
2023/01/27 05:46:03;;;;;;;1.52;1.25;;;2.20;99.90;;;;;;5051930;28;20280;-64
2023/01/27 05:48:31;;;;;;;1.65;1.25;;;2.30;99.90;;;;;;5043947;28;20265;-63
2023/01/27 05:50:59;;;;;;;1.63;1.42;;;2.30;99.90;;;;;;5043570;28;20276;-63
2023/01/27 05:53:27;;;;;;;1.00;1.00;;;2.20;99.90;;;;;;5051859;28;20217;-64
2023/01/27 05:55:55;;;;;;;1.88;1.70;;;2.20;99.90;;;;;;5051678;28;20704;-63
2023/01/27 05:58:25;;;;;;;1.20;1.10;;;2.20;99.90;;;;;;5050689;28;20195;-63
2023/01/27 06:00:53;;;;;;;1.35;1.25;;;2.20;99.90;;;;;;5051119;28;20215;-64
2023/01/27 06:03:22;;;;;;;1.45;1.35;;;2.30;99.90;;;;;;5051781;28;20622;-63
2023/01/27 06:05:54;;;;;;;1.10;1.05;;;2.30;99.90;;;;;;5051634;28;20755;-63
2023/01/27 06:08:23;;;;;;;1.05;1.00;;;2.20;99.90;;;;;;5040910;28;20628;-64
2023/01/27 06:10:51;;;;;;;1.23;1.10;;;2.20;99.90;;;;;;5049859;28;20201;-64
2023/01/27 06:13:21;;;;;;;1.20;1.10;;;2.20;99.90;;;;;;5052726;28;20282;-63
2023/01/27 06:15:50;;;;;;;1.17;1.08;;;2.20;99.90;;;;;;5051451;28;20224;-64
2023/01/27 06:18:19;;;;;;;1.75;1.25;;;2.20;99.90;;;;;;5050766;28;20197;-64
2023/01/27 06:20:47;;;;;;;1.85;1.00;;;2.20;99.90;;;;;;5050596;28;20242;-63
2023/01/27 06:23:17;;;;;;;1.58;1.48;;;2.20;99.90;;;;;;5044490;28;20650;-63
2023/01/27 06:25:46;;;;;;;1.20;1.10;;;2.30;99.90;;;;;;5050127;28;20215;-64
2023/01/27 06:28:15;;;;;;;1.85;1.35;;;2.30;99.90;;;;;;5050612;28;20565;-64
2023/01/27 06:31:05;;;;;;;2.28;1.40;;;2.30;99.90;;;;;;5049909;28;20235;-64
2023/01/27 06:33:33;;;;;;;1.45;1.25;;;2.30;99.90;;;;;;5050421;28;20201;-64
2023/01/27 06:36:02;;;;;;;2.08;1.90;;;2.30;99.90;;;;;;5051071;28;20243;-62
2023/01/27 06:38:30;;;;;;;2.10;1.90;;;2.30;99.90;;;;;;5050322;28;20193;-63
2023/01/27 06:40:59;;;;;;;2.53;1.73;;;2.30;99.90;;;;;;5049335;28;20214;-63
2023/01/27 06:43:27;;;;;;;1.25;1.13;;;2.30;99.90;;;;;;5044510;28;20348;-62
2023/01/27 06:45:57;;;;;;;1.23;1.13;;;2.30;99.90;;;;;;5049796;28;20333;-64
2023/01/27 06:48:26;;;;;;;1.83;1.73;;;2.30;99.90;;;;;;5048555;28;20212;-64
2023/01/27 06:50:54;;;;;;;2.03;1.70;;;2.30;99.90;;;;;;5049537;28;20287;-64
2023/01/27 06:53:23;;;;;;;1.42;1.33;;;2.30;99.90;;;;;;5049903;28;20192;-62
2023/01/27 06:55:55;;;;;;;2.17;1.83;;;2.30;99.90;;;;;;5047687;28;20220;-64
2023/01/27 06:58:23;;;;;;;1.83;1.73;;;2.30;99.90;;;;;;5048081;28;20267;-64
2023/01/27 07:00:52;;;;;;;1.30;1.10;;;2.40;99.90;;;;;;5049613;28;20231;-64
2023/01/27 07:03:21;;;;;;;1.60;1.35;;;2.40;99.90;;;;;;5049443;28;20224;-64
2023/01/27 07:05:49;;;;;;;1.55;1.00;;;2.40;99.90;;;;;;5050344;28;20601;-63
2023/01/27 07:08:17;;;;;;;1.98;1.30;;;2.30;99.90;;;;;;5049053;28;20237;-64
2023/01/27 07:10:45;;;;;;;1.48;1.38;;;2.30;99.90;;;;;;5049688;28;20224;-64
2023/01/27 07:13:14;;;;;;;0.90;0.80;;;2.30;99.90;;;;;;5050092;28;20294;-64
2023/01/27 07:15:42;;;;;;;1.20;0.93;;;2.30;99.90;;;;;;5048648;28;20229;-64
2023/01/27 07:18:12;;;;;;;1.52;0.95;;;2.40;99.90;;;;;;5044576;28;20193;-64
2023/01/27 07:20:42;;;;;;;0.98;0.98;;;2.40;99.90;;;;;;5041381;28;20201;-62
2023/01/27 07:23:10;;;;;;;1.00;0.90;;;2.40;99.90;;;;;;5046688;28;20227;-64
2023/01/27 07:25:39;;;;;;;1.15;0.93;;;2.40;99.90;;;;;;5047838;28;20731;-66
2023/01/27 07:28:07;;;;;;;1.58;1.48;;;2.40;99.90;;;;;;5047302;28;20229;-64
2023/01/27 07:30:36;;;;;;;2.83;1.77;;;2.40;99.90;;;;;;5049806;28;20288;-65
2023/01/27 07:33:04;;;;;;;1.35;1.25;;;2.40;99.90;;;;;;5035674;28;20193;-64
2023/01/27 07:35:32;;;;;;;0.95;0.85;;;2.40;99.90;;;;;;5030789;28;20276;-64
2023/01/27 07:38:01;;;;;;;2.58;1.35;;;2.40;99.90;;;;;;5030910;28;20198;-64
2023/01/27 07:40:29;;;;;;;1.95;1.85;;;2.50;99.90;;;;;;5030367;28;20570;-64
2023/01/27 07:42:58;;;;;;;1.88;1.75;;;2.50;99.90;;;;;;5032518;28;20232;-64
2023/01/27 07:45:28;;;;;;;1.02;0.95;;;2.50;99.90;;;;;;5071738;22;20316;31
2023/01/27 07:48:00;;;;;;;1.70;1.50;;;2.50;99.90;;;;;;5009293;28;20217;-65
2023/01/27 07:50:28;;;;;;;1.42;1.33;;;2.60;99.90;;;;;;5011002;28;20211;-64
2023/01/27 07:52:59;;;;;;;1.27;1.17;;;2.60;99.90;;;;;;5011518;28;20211;-65
2023/01/27 07:55:29;;;;;;;1.85;1.75;;;2.60;99.90;;;;;;4998047;28;20231;-64
2023/01/27 07:57:57;;;;;;;1.90;1.38;;;2.60;99.90;;;;;;5008823;28;20292;-64
2023/01/27 08:00:27;;;;;;;2.30;1.50;;;2.60;99.90;;;;;;5010276;28;20652;-64
2023/01/27 08:02:55;;;;;;;1.70;1.60;;;2.60;99.90;;;;;;5011170;28;20198;-65
2023/01/27 08:05:24;;;;;;;1.60;1.50;;;2.60;99.90;;;;;;5011453;28;20537;-65
2023/01/27 08:07:54;;;;;;;1.23;1.05;;;2.60;99.90;;;;;;5011187;28;20237;-65
2023/01/27 08:10:25;;;;;;;1.58;1.48;;;2.60;99.90;;;;;;5010541;28;20212;-64
2023/01/27 08:12:54;;;;;;;1.67;1.58;;;2.60;99.90;;;;;;4993170;28;20210;-65
2023/01/27 08:15:22;;;;;;;2.65;1.67;;;2.70;99.90;;;;;;5005554;28;20601;-65
2023/01/27 08:17:54;;;;;;;1.83;1.25;;;2.70;99.90;;;;;;5011282;28;20200;-65
2023/01/27 08:20:23;;;;;;;1.30;1.20;;;2.70;99.90;;;;;;5010420;28;20190;-65
2023/01/27 08:22:51;;;;;;;1.23;1.23;;;2.70;99.90;;;;;;5011111;28;20194;-65
2023/01/27 08:25:19;;;;;;;1.45;1.05;;;2.70;99.90;;;;;;5010935;28;20198;-65
2023/01/27 08:27:50;;;;;;;1.20;1.00;;;2.80;99.90;;;;;;5003790;28;20234;-65
2023/01/27 08:30:20;;;;;;;1.25;1.15;;;2.70;99.90;;;;;;5010342;28;20244;-65
2023/01/27 08:32:48;;;;;;;1.17;1.08;;;2.80;99.90;;;;;;5011994;28;20230;-65
2023/01/27 08:35:16;;;;;;;1.70;1.45;;;2.80;99.90;;;;;;5014750;28;20283;-65
2023/01/27 08:37:45;;;;;;;1.30;1.20;;;2.80;99.90;;;;;;5014524;28;20272;-66
2023/01/27 08:40:15;;;;;;;1.20;1.10;;;2.90;99.90;;;;;;5013993;28;20287;-66
2023/01/27 08:42:43;;;;;;;1.40;1.23;;;2.90;99.90;;;;;;5000094;28;20199;-66
2023/01/27 08:45:11;;;;;;;1.20;1.10;;;2.90;99.90;;;;;;5014620;28;20194;-65
2023/01/27 08:47:40;;;;;;;1.38;1.00;;;2.90;99.90;;;;;;5014262;28;20675;-65
2023/01/27 08:50:10;;;;;;;1.63;1.52;;;3.00;99.90;;;;;;5013651;28;20249;-65
2023/01/27 08:52:38;;;;;;;1.65;1.35;;;3.00;99.90;;;;;;5014426;28;20591;-66
2023/01/27 08:55:06;;;;;;;1.33;1.23;;;3.00;99.90;;;;;;5014268;28;20726;-65
2023/01/27 08:57:34;;;;;;;1.08;0.95;;;3.00;99.90;;;;;;5005040;28;20677;-65
2023/01/27 09:00:05;;;;;;;1.13;0.98;;;3.00;99.90;;;;;;5013514;28;20202;-65
2023/01/27 09:02:33;;;;;;;1.85;1.15;;;3.00;99.90;;;;;;5013970;28;20193;-66
2023/01/27 09:05:02;;;;;;;1.63;1.42;;;3.00;99.90;;;;;;5013984;28;20746;-66
2023/01/27 09:07:31;;;;;;;1.50;0.95;;;3.10;99.90;;;;;;5014135;28;20221;-65
2023/01/27 09:09:59;;;;;;;1.25;1.15;;;3.10;99.90;;;;;;5013395;28;20306;-65
2023/01/27 09:12:41;;;;;;;2.25;1.48;;;3.00;99.90;;;;;;4993999;28;20203;-66
2023/01/27 09:15:11;;;;;;;1.80;1.60;;;3.10;99.90;;;;;;4994239;28;20194;-65
2023/01/27 09:17:39;;;;;;;1.42;1.30;;;3.10;99.90;;;;;;4994571;28;20689;-65
2023/01/27 09:20:10;;;;;;;1.63;1.40;;;3.10;99.90;;;;;;4993641;28;20194;-65
2023/01/27 09:22:40;;;;;;;1.65;1.52;;;3.10;99.90;;;;;;4994261;28;20202;-65
2023/01/27 09:25:09;;;;;;;0.93;0.93;;;3.10;99.90;;;;;;4995568;28;20193;-65
2023/01/27 09:27:37;;;;;;;1.60;1.50;;;3.00;99.90;;;;;;5013590;28;20253;-67
2023/01/27 09:30:09;;;;;;;2.25;1.08;;;3.10;99.90;;;;;;5012893;28;20221;-65
2023/01/27 09:32:37;;;;;;;1.40;1.30;;;3.00;99.90;;;;;;5013905;28;20190;-65
2023/01/27 09:35:06;;;;;;;1.73;1.30;;;3.10;99.90;;;;;;5013508;28;20191;-65
2023/01/27 09:37:40;;;;;;;1.70;1.60;;;3.10;99.90;;;;;;5013984;28;20223;-66
2023/01/27 09:40:17;;;;;;;1.38;1.27;;;3.10;99.90;;;;;;5010920;28;20221;-66
2023/01/27 09:43:02;;;;;;;2.05;1.65;;;3.10;99.90;;;;;;4993846;28;20302;-65
2023/01/27 09:45:43;;;;;;;1.75;1.65;;;3.10;99.90;;;;;;4993660;28;20218;-66
2023/01/27 09:48:33;;;;;;;1.23;1.13;;;3.10;99.90;;;;;;4993737;28;20234;-65
2023/01/27 09:51:09;;;;;;;2.17;1.25;;;3.20;99.90;;;;;;4993278;28;20222;-65
2023/01/27 09:53:59;;;;;;;1.40;1.30;;;3.20;99.90;;;;;;4993666;28;20204;-65
2023/01/27 09:56:51;;;;;;;1.10;0.90;;;3.20;99.90;;;;;;5006458;28;20312;-65
2023/01/27 09:59:35;;;;;;;1.10;1.00;;;3.20;99.90;;;;;;5013087;28;20280;-65
2023/01/27 10:02:15;;;;;;;1.90;1.38;;;3.20;99.90;;;;;;5013284;28;20205;-65
2023/01/27 10:05:14;;;;;;;1.20;1.10;;;3.20;99.90;;;;;;5013111;28;20204;-66
2023/01/27 10:08:03;;;;;;;1.10;1.00;;;3.20;99.90;;;;;;4993584;28;20364;-65
2023/01/27 10:10:43;;;;;;;1.58;1.48;;;3.30;99.90;;;;;;5011769;28;20225;-65
2023/01/27 10:13:22;;;;;;;1.73;1.20;;;3.20;99.90;;;;;;5012686;28;20214;-66
2023/01/27 10:16:14;;;;;;;1.65;1.55;;;3.30;99.90;;;;;;5012828;28;20316;-66
2023/01/27 10:19:01;;;;;;;1.30;1.20;;;3.30;99.90;;;;;;4999928;28;20271;-65
2023/01/27 10:21:36;;;;;;;1.40;1.30;;;3.30;99.90;;;;;;5012080;28;20235;-65
2023/01/27 10:24:12;;;;;;;1.35;1.20;;;3.30;99.90;;;;;;5012448;28;20198;-65
2023/01/27 10:26:49;;;;;;;1.02;0.93;;;3.40;99.90;;;;;;5011890;28;20321;-65
2023/01/27 10:29:23;;;;;;;1.65;1.30;;;3.40;99.90;;;;;;5012366;28;20255;-66
2023/01/27 10:31:57;;;;;;;1.25;1.15;;;3.40;99.90;;;;;;5011923;28;20281;-65
2023/01/27 10:34:29;;;;;;;1.23;1.13;;;3.40;99.90;;;;;;5012468;28;20721;-65
2023/01/27 10:37:11;;;;;;;1.42;1.33;;;3.40;99.90;;;;;;5012361;28;20249;-65
2023/01/27 10:39:46;;;;;;;1.30;1.13;;;3.40;99.90;;;;;;5008959;28;20191;-66
2023/01/27 10:42:25;;;;;;;1.00;0.80;;;3.40;99.90;;;;;;4992878;28;20676;-65
2023/01/27 10:45:10;;;;;;;1.30;1.20;;;3.40;99.90;;;;;;4992444;28;20264;-66
2023/01/27 10:48:04;;;;;;;1.25;1.15;;;3.50;99.90;;;;;;4992560;28;20719;-65
2023/01/27 10:50:37;;;;;;;1.48;1.27;;;3.50;99.90;;;;;;4991955;28;20780;-65
2023/01/27 10:53:11;;;;;;;1.33;1.23;;;3.60;99.90;;;;;;4992559;28;20591;-65
2023/01/27 10:55:45;;;;;;;1.50;0.85;;;3.60;99.90;;;;;;5003526;28;20297;-65
2023/01/27 10:58:20;;;;;;;1.40;0.90;;;3.60;99.90;;;;;;5012123;28;20293;-65
2023/01/27 11:00:53;;;;;;;0.80;0.60;;;3.70;99.90;;;;;;5004535;28;20219;-66
2023/01/27 11:03:44;;;;;;;1.40;1.25;;;3.70;99.90;;;;;;5011767;28;20695;-66
2023/01/27 11:06:17;;;;;;;1.40;1.30;;;3.70;99.90;;;;;;5012199;28;20231;-65
2023/01/27 11:08:47;;;;;;;1.23;1.13;;;3.70;99.90;;;;;;5011936;28;20193;-65
2023/01/27 11:14:21;;;;;;;1.17;1.08;;;3.70;99.90;;;;;;4991851;28;20198;-65
2023/01/27 11:16:52;;;;;;;1.08;0.80;;;3.80;99.90;;;;;;4992313;28;20585;-65
2023/01/27 11:19:30;;;;;;;1.38;0.88;;;3.90;99.90;;;;;;4992224;28;20213;-65
2023/01/27 11:21:59;;;;;;;0.98;0.70;;;3.90;99.90;;;;;;4992005;28;20280;-65
2023/01/27 11:24:44;;;;;;;1.02;0.70;;;3.90;99.90;;;;;;4996784;28;20192;-66
2023/01/27 11:27:22;;;;;;;1.20;1.10;;;3.90;99.90;;;;;;5011474;28;20267;-65
2023/01/27 11:29:57;;;;;;;1.10;1.00;;;3.90;99.90;;;;;;5004274;28;20339;-66
2023/01/27 11:32:41;;;;;;;1.00;0.90;;;4.00;99.90;;;;;;5011873;28;20213;-65
2023/01/27 11:35:11;;;;;;;0.70;0.60;;;4.10;99.90;;;;;;5011283;28;20223;-65
2023/01/27 11:37:41;;;;;;;1.17;0.77;;;4.20;99.90;;;;;;5011687;28;20650;-65
2023/01/27 11:40:22;;;;;;;0.82;0.82;;;4.30;99.90;;;;;;5009654;28;20296;-65
2023/01/27 11:42:50;;;;;;;0.80;0.60;;;4.30;99.90;;;;;;5011381;28;20652;-65
2023/01/27 11:45:21;;;;;;;0.98;0.50;;;4.30;99.90;;;;;;5011027;28;20243;-65
2023/01/27 11:47:54;;;;;;;0.70;0.60;;;4.30;99.90;;;;;;5011345;28;20332;-65
2023/01/27 11:50:23;;;;;;;1.15;0.80;;;4.40;99.90;;;;;;5010657;28;20306;-65
2023/01/27 11:52:58;;;;;;;0.70;0.57;;;4.30;99.90;;;;;;5011298;28;20308;-65
2023/01/27 11:55:33;;;;;;;0.70;0.40;;;4.30;99.90;;;;;;5009866;28;20625;-65
2023/01/27 11:58:11;;;;;;;0.80;0.73;;;4.30;99.90;;;;;;5011189;28;20292;-65
2023/01/27 12:00:44;;;;;;;1.35;0.75;;;4.40;99.90;;;;;;5002648;28;20834;-66
2023/01/27 12:03:20;;;;;;;0.60;0.60;;;4.30;99.90;;;;;;5011233;28;20205;-65
2023/01/27 12:05:55;;;;;;;0.80;0.80;;;4.40;99.90;;;;;;5011117;28;20704;-65
2023/01/27 12:08:40;;;;;;;0.70;0.60;;;4.40;99.90;;;;;;5012829;28;20570;-65
2023/01/27 12:11:19;;;;;;;0.80;0.80;;;4.40;99.90;;;;;;5014446;28;20222;-65
2023/01/27 12:13:52;;;;;;;0.60;0.50;;;4.40;99.90;;;;;;5015150;28;20209;-66
2023/01/27 12:16:23;;;;;;;0.60;0.50;;;4.30;99.90;;;;;;5014872;28;20238;-65
2023/01/27 12:18:56;;;;;;;0.95;0.85;;;4.20;99.90;;;;;;5015033;28;20573;-65
2023/01/27 12:21:37;;;;;;;0.90;0.68;;;4.20;99.90;;;;;;5009996;28;20193;-66
2023/01/27 12:24:17;;;;;;;0.70;0.57;;;4.30;99.90;;;;;;4995418;28;20212;-65
2023/01/27 12:26:45;;;;;;;0.60;0.50;;;4.20;99.90;;;;;;4998888;28;20570;-65
2023/01/27 12:29:20;;;;;;;0.80;0.80;;;4.20;99.90;;;;;;5014531;28;20296;-65
2023/01/27 12:31:51;;;;;;;0.60;0.50;;;4.10;99.90;;;;;;4994590;28;20227;-66
2023/01/27 12:34:27;;;;;;;0.82;0.73;;;4.10;99.90;;;;;;4995106;28;20216;-67
2023/01/27 12:36:57;;;;;;;0.80;0.60;;;4.20;99.90;;;;;;4995473;28;20218;-66
2023/01/27 12:39:40;;;;;;;0.70;0.60;;;4.20;99.90;;;;;;4994950;28;20285;-66
2023/01/27 12:42:46;;;;;;;0.70;0.60;;;4.20;99.90;;;;;;4995472;28;20208;-67
2023/01/27 12:45:23;;;;;;;0.60;0.40;;;4.20;99.90;;;;;;4993382;28;20203;-67
2023/01/27 12:48:01;;;;;;;0.70;0.60;;;4.20;99.90;;;;;;4994844;28;20753;-65
2023/01/27 12:50:31;;;;;;;0.85;0.63;;;4.20;99.90;;;;;;4994370;28;20231;-65
2023/01/27 12:53:11;;;;;;;0.60;0.40;;;4.20;99.90;;;;;;4994964;28;20235;-65
2023/01/27 12:55:41;;;;;;;0.57;0.50;;;4.20;99.90;;;;;;4994597;28;20194;-65
2023/01/27 12:58:31;;;;;;;0.80;0.60;;;4.20;99.90;;;;;;5009810;28;20290;-65
2023/01/27 13:01:01;;;;;;;0.60;0.50;;;4.20;99.90;;;;;;5008423;28;20289;-65
2023/01/27 13:03:31;;;;;;;0.98;0.50;;;4.20;99.90;;;;;;5013103;28;20197;-65
2023/01/27 13:06:00;;;;;;;0.60;0.50;;;4.20;99.90;;;;;;4999017;28;20254;-65
2023/01/27 13:08:32;;;;;;;0.60;0.50;;;4.20;99.90;;;;;;4994600;28;20678;-65
2023/01/27 13:11:02;;;;;;;1.02;0.65;;;4.30;99.90;;;;;;4993818;28;20226;-66
2023/01/27 13:13:30;;;;;;;0.60;0.50;;;4.30;99.90;;;;;;4994421;28;20293;-65
2023/01/27 13:16:06;;;;;;;0.90;0.70;;;4.30;99.90;;;;;;4994051;28;20343;-65
2023/01/27 13:18:38;;;;;;;0.60;0.43;;;4.30;99.90;;;;;;4994010;28;20202;-65
2023/01/27 13:21:15;;;;;;;0.60;0.47;;;4.20;99.90;;;;;;4993631;28;20217;-65
2023/01/27 13:23:44;;;;;;;0.60;0.60;;;4.20;99.90;;;;;;4994415;28;20201;-65
2023/01/27 13:26:17;;;;;;;0.73;0.60;;;4.20;99.90;;;;;;4993972;28;20317;-65
2023/01/27 13:28:51;;;;;;;0.60;0.57;;;4.30;99.90;;;;;;5003929;28;20225;-65
2023/01/27 13:31:33;;;;;;;1.15;0.80;;;4.20;99.90;;;;;;5012724;28;20263;-65
2023/01/27 13:34:10;;;;;;;0.60;0.50;;;4.30;99.90;;;;;;5005276;28;20663;-65
2023/01/27 13:36:44;;;;;;;0.60;0.50;;;4.20;99.90;;;;;;4993858;28;20301;-65
2023/01/27 13:39:18;;;;;;;0.60;0.50;;;4.30;99.90;;;;;;4994223;28;20289;-66
2023/01/27 13:41:51;;;;;;;0.60;0.50;;;4.30;99.90;;;;;;5012505;28;20194;-66
2023/01/27 13:44:37;;;;;;;0.80;0.50;;;4.30;99.90;;;;;;5013280;28;20280;-66
2023/01/27 13:47:11;;;;;;;0.60;0.50;;;4.40;99.90;;;;;;5014112;28;20369;-66
2023/01/27 13:49:44;;;;;;;0.50;0.40;;;4.40;99.90;;;;;;5012677;28;20656;-66
2023/01/27 13:52:12;;;;;;;0.65;0.40;;;4.40;99.90;;;;;;5013131;28;20215;-66
2023/01/27 13:54:40;;;;;;;0.50;0.40;;;4.40;99.90;;;;;;5012564;28;20277;-66
2023/01/27 13:57:24;;;;;;;0.90;0.50;;;4.40;99.90;;;;;;5007488;28;20605;-66
2023/01/27 14:00:03;;;;;;;0.80;0.50;;;4.40;99.90;;;;;;5010831;28;20293;-66